createdAt,value
2018-03-02T00:00:07.037Z,23.33
2018-03-02T00:02:33.330Z,23.90
2018-03-02T00:04:59.786Z,24.93
2018-03-02T00:07:26.214Z,25.37
2018-03-02T00:09:59.717Z,24.37
2018-03-02T00:12:26.042Z,25.17
2018-03-02T00:14:52.406Z,23.97
2018-03-02T00:17:18.761Z,24.50
2018-03-02T00:19:45.162Z,26.53
2018-03-02T00:22:11.515Z,26.33
2018-03-02T00:24:37.951Z,26.40
2018-03-02T00:27:04.313Z,29.63
2018-03-02T00:29:30.724Z,29.20
2018-03-02T00:31:57.165Z,30.33
2018-03-02T00:34:23.514Z,29.93
2018-03-02T00:36:49.874Z,29.73
2018-03-02T00:39:16.264Z,29.33
2018-03-02T00:41:42.686Z,29.70
2018-03-02T00:44:09.074Z,31.43
2018-03-02T00:46:35.426Z,30.63
2018-03-02T00:49:01.861Z,30.13
2018-03-02T00:51:28.201Z,30.83
2018-03-02T00:53:54.554Z,31.67
2018-03-02T00:56:20.900Z,31.27
2018-03-02T00:58:47.282Z,29.47
2018-03-02T01:01:13.627Z,30.43
2018-03-02T01:03:40.043Z,29.97
2018-03-02T01:06:06.425Z,30.03
2018-03-02T01:08:32.824Z,31.13
2018-03-02T01:10:59.220Z,31.07
2018-03-02T01:13:25.590Z,30.93
2018-03-02T01:15:52.003Z,30.67
2018-03-02T01:18:18.378Z,28.10
2018-03-02T01:20:44.867Z,27.63
2018-03-02T01:23:11.271Z,28.17
2018-03-02T01:25:37.688Z,31.60
2018-03-02T01:28:04.085Z,29.17
2018-03-02T01:30:30.487Z,32.47
2018-03-02T01:32:56.978Z,33.73
2018-03-02T01:35:23.329Z,36.17
2018-03-02T01:37:49.688Z,33.17
2018-03-02T01:40:16.027Z,30.07
2018-03-02T01:42:42.414Z,32.43
2018-03-02T01:45:08.790Z,31.90
2018-03-02T01:47:35.155Z,34.07
2018-03-02T01:50:01.514Z,35.60
2018-03-02T01:52:27.917Z,36.40
2018-03-02T01:54:54.241Z,34.07
2018-03-02T01:57:20.576Z,35.27
2018-03-02T01:59:46.907Z,36.63
2018-03-02T02:02:13.265Z,33.70
2018-03-02T02:04:39.683Z,35.10
2018-03-02T02:07:06.121Z,34.87
2018-03-02T02:09:32.477Z,32.50
2018-03-02T02:11:58.876Z,31.10
2018-03-02T02:14:25.299Z,31.13
2018-03-02T02:16:51.634Z,30.43
2018-03-02T02:19:18.069Z,31.07
2018-03-02T02:21:44.445Z,30.23
2018-03-02T02:24:10.797Z,32.43
2018-03-02T02:26:37.191Z,32.00
2018-03-02T02:29:03.566Z,32.33
2018-03-02T02:31:29.914Z,34.43
2018-03-02T02:33:56.253Z,34.97
2018-03-02T02:36:22.659Z,35.30
2018-03-02T02:38:49.009Z,37.40
2018-03-02T02:41:15.373Z,34.20
2018-03-02T02:43:41.763Z,34.00
2018-03-02T02:46:08.143Z,34.13
2018-03-02T02:48:34.552Z,34.43
2018-03-02T02:51:00.910Z,34.33
2018-03-02T02:53:27.283Z,34.17
2018-03-02T02:55:53.691Z,34.50
2018-03-02T02:58:20.098Z,33.90
2018-03-02T03:00:46.474Z,35.90
2018-03-02T03:03:12.852Z,34.83
2018-03-02T03:05:39.221Z,35.37
2018-03-02T03:08:05.569Z,35.30
2018-03-02T03:10:32.081Z,36.20
2018-03-02T03:12:58.418Z,36.50
2018-03-02T03:15:24.769Z,35.33
2018-03-02T03:17:51.159Z,37.03
2018-03-02T03:20:17.548Z,35.27
2018-03-02T03:22:43.988Z,36.17
2018-03-02T03:25:10.325Z,35.33
2018-03-02T03:27:36.649Z,34.20
2018-03-02T03:30:03.040Z,36.63
2018-03-02T03:32:29.425Z,34.37
2018-03-02T03:34:55.784Z,33.77
2018-03-02T03:37:22.178Z,36.03
2018-03-02T03:39:48.501Z,35.07
2018-03-02T03:42:14.838Z,38.33
2018-03-02T03:44:41.225Z,39.30
2018-03-02T03:47:07.607Z,39.50
2018-03-02T03:49:33.961Z,40.10
2018-03-02T03:52:00.322Z,41.07
2018-03-02T03:54:26.654Z,37.83
2018-03-02T03:56:53.037Z,40.20
2018-03-02T03:59:19.370Z,42.23
2018-03-02T04:01:45.773Z,42.47
2018-03-02T04:04:12.156Z,39.63
2018-03-02T04:06:38.513Z,40.53
2018-03-02T04:09:04.874Z,39.37
2018-03-02T04:11:31.218Z,40.23
2018-03-02T04:13:57.579Z,38.17
2018-03-02T04:16:23.939Z,37.23
2018-03-02T04:18:50.289Z,38.73
2018-03-02T04:21:16.655Z,39.03
2018-03-02T04:23:43.013Z,39.57
2018-03-02T04:26:09.434Z,39.70
2018-03-02T04:28:35.759Z,41.03
2018-03-02T04:31:02.170Z,37.73
2018-03-02T04:33:28.548Z,38.27
2018-03-02T04:35:54.896Z,37.33
2018-03-02T04:38:21.245Z,39.27
2018-03-02T04:40:47.640Z,37.50
2018-03-02T04:43:14.068Z,40.77
2018-03-02T04:45:40.423Z,37.90
2018-03-02T04:48:06.858Z,41.67
2018-03-02T04:50:33.201Z,42.23
2018-03-02T04:52:59.565Z,40.77
2018-03-02T04:55:25.934Z,38.87
2018-03-02T04:57:52.281Z,40.30
2018-03-02T05:00:18.717Z,40.97
2018-03-02T05:02:45.066Z,38.80
2018-03-02T05:05:11.581Z,42.07
2018-03-02T05:07:37.931Z,45.33
2018-03-02T05:10:04.278Z,42.50
2018-03-02T05:12:30.891Z,44.53
2018-03-02T05:14:57.262Z,53.97
2018-03-02T05:17:23.643Z,48.40
2018-03-02T05:19:50.018Z,46.37
2018-03-02T05:22:16.388Z,47.77
2018-03-02T05:24:42.734Z,49.07
2018-03-02T05:27:09.111Z,50.73
2018-03-02T05:29:35.461Z,51.13
2018-03-02T05:32:01.810Z,52.23
2018-03-02T05:34:28.161Z,53.13
2018-03-02T05:36:54.553Z,56.70
2018-03-02T05:39:20.881Z,60.27
2018-03-02T05:41:47.210Z,59.53
2018-03-02T05:44:13.542Z,52.47
2018-03-02T05:46:39.925Z,53.40
2018-03-02T05:49:06.306Z,52.27
2018-03-02T05:51:32.694Z,50.40
2018-03-02T05:53:59.065Z,53.50
2018-03-02T05:56:25.427Z,51.33
2018-03-02T05:58:51.878Z,50.77
2018-03-02T06:01:18.254Z,51.73
2018-03-02T06:03:44.625Z,55.03
2018-03-02T06:06:10.986Z,108.67
2018-03-02T06:08:37.362Z,146.47
2018-03-02T06:11:03.857Z,77.47
2018-03-02T06:13:30.440Z,79.47
2018-03-02T06:15:56.833Z,200.07
2018-03-02T06:18:23.466Z,101.93
2018-03-02T06:20:49.966Z,63.17
2018-03-02T06:23:16.393Z,58.37
2018-03-02T06:25:42.802Z,57.57
2018-03-02T06:28:09.385Z,56.93
2018-03-02T06:30:35.756Z,59.43
2018-03-02T06:33:02.351Z,60.47
2018-03-02T06:35:28.697Z,70.00
2018-03-02T06:37:55.071Z,65.90
2018-03-02T06:40:21.511Z,71.83
2018-03-02T06:42:47.932Z,70.90
2018-03-02T06:45:14.291Z,74.43
2018-03-02T06:47:40.770Z,69.23
2018-03-02T06:50:07.122Z,58.83
2018-03-02T06:52:33.769Z,51.37
2018-03-02T06:55:00.122Z,51.67
2018-03-02T06:57:26.581Z,53.87
2018-03-02T06:59:53.001Z,50.40
2018-03-02T07:02:19.452Z,51.93
2018-03-02T07:04:45.894Z,48.27
2018-03-02T07:07:12.316Z,50.13
2018-03-02T07:09:38.799Z,52.87
2018-03-02T07:12:05.358Z,55.87
2018-03-02T07:14:31.818Z,54.33
2018-03-02T07:16:58.226Z,50.37
2018-03-02T07:19:24.586Z,53.57
2018-03-02T07:21:50.946Z,55.43
2018-03-02T07:24:17.334Z,53.03
2018-03-02T07:26:43.878Z,51.67
2018-03-02T07:29:10.235Z,50.30
2018-03-02T07:31:36.654Z,50.07
2018-03-02T07:34:03.098Z,51.33
2018-03-02T07:36:29.560Z,54.87
2018-03-02T07:38:55.920Z,49.33
2018-03-02T07:41:22.298Z,49.10
2018-03-02T07:43:48.731Z,52.10
2018-03-02T07:46:15.135Z,53.03
2018-03-02T07:48:41.573Z,49.10
2018-03-02T07:51:08.011Z,50.40
2018-03-02T07:53:34.429Z,50.70
2018-03-02T07:56:00.849Z,49.47
2018-03-02T07:58:27.325Z,50.17
2018-03-02T08:00:53.717Z,53.73
2018-03-02T08:03:20.144Z,53.87
2018-03-02T08:05:46.503Z,47.17
2018-03-02T08:08:13.087Z,46.53
2018-03-02T08:10:39.435Z,48.60
2018-03-02T08:13:05.883Z,53.60
2018-03-02T08:15:32.314Z,52.77
2018-03-02T08:17:58.813Z,50.43
2018-03-02T08:20:25.243Z,50.00
2018-03-02T08:22:51.614Z,48.13
2018-03-02T08:25:17.972Z,50.50
2018-03-02T08:27:44.391Z,49.07
2018-03-02T08:30:10.730Z,48.77
2018-03-02T08:32:37.106Z,50.20
2018-03-02T08:35:03.546Z,55.03
2018-03-02T08:37:29.881Z,50.43
2018-03-02T08:39:56.246Z,49.03
2018-03-02T08:42:22.694Z,50.33
2018-03-02T08:44:49.093Z,47.83
2018-03-02T08:47:15.445Z,50.97
2018-03-02T08:49:41.825Z,53.43
2018-03-02T08:52:08.282Z,47.07
2018-03-02T08:54:34.682Z,45.87
2018-03-02T08:57:01.137Z,47.83
2018-03-02T08:59:27.741Z,49.80
2018-03-02T09:01:54.104Z,54.43
2018-03-02T09:04:20.449Z,53.13
2018-03-02T09:06:46.890Z,47.47
2018-03-02T09:09:13.227Z,50.07
2018-03-02T09:11:39.632Z,52.83
2018-03-02T09:14:06.224Z,50.03
2018-03-02T09:16:32.639Z,51.00
2018-03-02T09:18:59.056Z,47.27
2018-03-02T09:21:25.423Z,47.87
2018-03-02T09:23:51.793Z,49.40
2018-03-02T09:26:18.309Z,48.73
2018-03-02T09:28:44.643Z,51.50
2018-03-02T09:31:11.017Z,48.30
2018-03-02T09:33:37.358Z,52.27
2018-03-02T09:36:03.755Z,54.70
2018-03-02T09:38:30.102Z,55.00
2018-03-02T09:40:56.450Z,53.47
2018-03-02T09:43:22.874Z,50.60
2018-03-02T09:45:49.249Z,50.30
2018-03-02T09:48:15.625Z,54.07
2018-03-02T09:50:41.989Z,58.50
2018-03-02T09:53:08.334Z,53.93
2018-03-02T09:55:34.727Z,58.83
2018-03-02T09:58:01.082Z,56.53
2018-03-02T10:00:27.430Z,54.90
2018-03-02T10:02:53.807Z,60.13
2018-03-02T10:05:20.198Z,58.90
2018-03-02T10:07:46.578Z,62.57
2018-03-02T10:10:13.118Z,68.27
2018-03-02T10:12:39.501Z,73.80
2018-03-02T10:15:05.897Z,72.40
2018-03-02T10:17:32.281Z,73.40
2018-03-02T10:19:58.636Z,60.50
2018-03-02T10:22:25.074Z,58.63
2018-03-02T10:24:51.438Z,59.10
2018-03-02T10:27:17.974Z,59.07
2018-03-02T10:29:44.322Z,53.17
2018-03-02T10:32:10.774Z,53.60
2018-03-02T10:34:37.191Z,53.17
2018-03-02T10:37:03.672Z,50.80
2018-03-02T10:39:30.045Z,48.80
2018-03-02T10:41:56.535Z,46.80
2018-03-02T10:44:22.923Z,46.27
2018-03-02T10:46:49.304Z,46.97
2018-03-02T10:49:15.773Z,44.37
2018-03-02T10:51:42.185Z,43.77
2018-03-02T10:54:08.551Z,43.87
2018-03-02T10:56:34.953Z,44.80
2018-03-02T10:59:01.368Z,44.83
2018-03-02T11:01:27.730Z,44.57
2018-03-02T11:04:00.172Z,45.23
2018-03-02T11:06:26.625Z,43.77
2018-03-02T11:08:53.097Z,43.37
2018-03-02T11:11:19.499Z,42.00
2018-03-02T11:13:45.967Z,39.03
2018-03-02T11:16:12.377Z,40.70
2018-03-02T11:18:38.753Z,36.07
2018-03-02T11:21:05.160Z,37.20
2018-03-02T11:23:31.514Z,37.53
2018-03-02T11:25:57.870Z,37.67
2018-03-02T11:28:24.207Z,39.57
2018-03-02T11:30:50.695Z,39.87
2018-03-02T11:33:17.221Z,40.20
2018-03-02T11:35:43.626Z,44.07
2018-03-02T11:38:10.032Z,40.03
2018-03-02T11:40:36.438Z,47.10
2018-03-02T11:43:02.829Z,41.77
2018-03-02T11:45:29.226Z,39.73
2018-03-02T11:47:55.611Z,34.87
2018-03-02T11:50:22.187Z,35.37
2018-03-02T11:52:48.578Z,35.17
2018-03-02T11:55:15.161Z,34.73
2018-03-02T11:57:41.494Z,37.37
2018-03-02T12:00:07.902Z,39.33
2018-03-02T12:02:34.281Z,39.07
2018-03-02T12:05:00.658Z,36.87
2018-03-02T12:07:27.267Z,36.80
2018-03-02T12:09:53.954Z,38.00
2018-03-02T12:12:20.514Z,36.97
2018-03-02T12:14:46.918Z,37.50
2018-03-02T12:17:13.297Z,39.47
2018-03-02T12:19:39.713Z,41.63
2018-03-02T12:22:06.087Z,40.60
2018-03-02T12:24:32.467Z,39.10
2018-03-02T12:26:58.801Z,38.87
2018-03-02T12:29:25.287Z,41.03
2018-03-02T12:31:51.660Z,43.43
2018-03-02T12:34:18.209Z,41.23
2018-03-02T12:36:44.726Z,44.20
2018-03-02T12:39:11.105Z,43.67
2018-03-02T12:41:37.802Z,41.10
2018-03-02T12:44:04.260Z,41.53
2018-03-02T12:46:30.805Z,41.03
2018-03-02T12:48:57.258Z,39.77
2018-03-02T12:51:23.725Z,41.20
2018-03-02T12:53:50.068Z,39.53
2018-03-02T12:56:16.402Z,38.63
2018-03-02T12:58:42.769Z,38.87
2018-03-02T13:01:09.135Z,40.70
2018-03-02T13:03:35.831Z,42.73
2018-03-02T13:06:02.317Z,44.60
2018-03-02T13:08:28.708Z,45.40
2018-03-02T13:10:55.158Z,44.07
2018-03-02T13:13:21.542Z,44.27
2018-03-02T13:15:47.926Z,47.07
2018-03-02T13:18:26.568Z,44.07
2018-03-02T13:20:52.861Z,45.10
2018-03-02T13:23:19.642Z,46.43
2018-03-02T13:25:46.098Z,47.63
2018-03-02T13:28:24.899Z,48.13
2018-03-02T13:30:51.226Z,48.20
2018-03-02T13:33:29.878Z,48.93
2018-03-02T13:35:56.257Z,49.87
2018-03-02T13:38:22.690Z,55.53
2018-03-02T13:41:01.224Z,60.23
2018-03-02T13:43:27.627Z,61.50
2018-03-02T13:45:54.087Z,67.47
2018-03-02T13:48:41.396Z,58.53
2018-03-02T13:51:07.717Z,60.40
2018-03-02T13:53:34.086Z,53.90
2018-03-02T13:56:00.494Z,51.70
2018-03-02T13:58:26.965Z,50.70
2018-03-02T14:00:53.374Z,57.37
2018-03-02T14:16:46.623Z,50.00
2018-03-02T14:19:12.957Z,47.17
2018-03-02T14:21:39.411Z,47.60
2018-03-02T14:24:05.736Z,50.97
2018-03-02T14:26:32.109Z,50.00
2018-03-02T14:28:58.465Z,49.30
2018-03-02T14:31:24.850Z,49.43
2018-03-02T14:33:51.201Z,53.97
2018-03-02T14:36:17.579Z,49.90
2018-03-02T14:38:43.983Z,47.50
2018-03-02T14:41:10.334Z,45.97
2018-03-02T14:43:36.738Z,44.10
2018-03-02T14:46:03.138Z,46.43
2018-03-02T14:48:29.534Z,46.30
2018-03-02T14:50:55.877Z,50.70
2018-03-02T14:53:22.262Z,54.83
2018-03-02T14:55:48.697Z,57.33
2018-03-02T14:58:15.092Z,56.43
2018-03-02T15:00:41.461Z,61.10
2018-03-02T15:03:07.815Z,58.10
2018-03-02T15:05:34.304Z,58.73
2018-03-02T15:08:00.658Z,59.07
2018-03-02T15:10:27.199Z,55.70
2018-03-02T15:12:53.617Z,53.80
2018-03-02T15:15:20.042Z,55.57
2018-03-02T15:17:46.538Z,53.90
2018-03-02T15:20:12.845Z,52.13
2018-03-02T15:22:39.220Z,54.07
2018-03-02T15:25:05.600Z,51.07
2018-03-02T15:27:31.969Z,51.30
2018-03-02T15:29:58.312Z,50.03
2018-03-02T15:32:24.697Z,56.43
2018-03-02T15:34:51.060Z,56.63
2018-03-02T15:37:17.441Z,53.73
2018-03-02T15:39:43.814Z,62.63
2018-03-02T15:42:10.180Z,61.70
2018-03-02T15:44:36.621Z,55.83
2018-03-02T15:47:03.054Z,55.70
2018-03-02T15:49:29.471Z,58.53
2018-03-02T15:51:55.853Z,56.30
2018-03-02T15:54:22.246Z,51.40
2018-03-02T15:56:48.603Z,47.00
2018-03-02T15:59:14.954Z,46.03
2018-03-02T16:01:41.318Z,45.57
2018-03-02T16:04:07.660Z,44.57
2018-03-02T16:06:34.006Z,45.50
2018-03-02T16:09:00.354Z,49.33
2018-03-02T16:11:26.714Z,53.17
2018-03-02T16:13:53.111Z,51.03
2018-03-02T16:16:19.498Z,52.03
2018-03-02T16:18:45.967Z,71.63
2018-03-02T16:21:12.326Z,64.63
2018-03-02T16:23:38.731Z,53.40
2018-03-02T16:26:05.139Z,53.47
2018-03-02T16:28:31.480Z,56.60
2018-03-02T16:30:57.912Z,58.77
2018-03-02T16:33:24.333Z,52.53
2018-03-02T16:35:50.722Z,53.13
2018-03-02T16:38:17.107Z,52.60
2018-03-02T16:40:43.502Z,51.60
2018-03-02T16:43:09.904Z,52.67
2018-03-02T16:45:36.337Z,57.20
2018-03-02T16:48:02.706Z,54.00
2018-03-02T16:50:29.070Z,59.13
2018-03-02T16:52:55.422Z,57.43
2018-03-02T16:55:21.794Z,60.60
2018-03-02T16:57:48.354Z,58.90
2018-03-02T17:00:14.770Z,54.07
2018-03-02T17:02:41.203Z,47.67
2018-03-02T17:05:07.611Z,43.97
2018-03-02T17:07:34.162Z,49.73
2018-03-02T17:10:00.515Z,49.03
2018-03-02T17:12:26.966Z,47.20
2018-03-02T17:14:53.818Z,46.60
2018-03-02T17:17:20.250Z,48.83
2018-03-02T17:19:46.642Z,47.77
2018-03-02T17:22:12.988Z,52.27
2018-03-02T17:24:39.444Z,50.47
2018-03-02T17:27:05.858Z,58.97
2018-03-02T17:29:32.230Z,73.53
2018-03-02T17:31:58.661Z,77.60
2018-03-02T17:34:25.010Z,80.83
2018-03-02T17:36:51.405Z,84.23
2018-03-02T17:39:17.884Z,81.57
2018-03-02T17:41:44.246Z,76.67
2018-03-02T17:44:10.688Z,69.53
2018-03-02T17:46:37.062Z,79.57
2018-03-02T17:49:03.450Z,96.00
2018-03-02T17:51:29.810Z,105.27
2018-03-02T17:53:56.177Z,114.60
2018-03-02T17:56:22.626Z,111.13
2018-03-02T17:58:49.077Z,68.63
2018-03-02T18:01:15.531Z,58.43
2018-03-02T18:03:41.942Z,57.20
2018-03-02T18:06:08.292Z,60.63
2018-03-02T18:08:34.734Z,58.93
2018-03-02T18:11:01.097Z,55.20
2018-03-02T18:13:27.438Z,50.10
2018-03-02T18:15:53.912Z,51.83
2018-03-02T18:18:20.279Z,55.37
2018-03-02T18:20:46.622Z,54.23
2018-03-02T18:23:12.984Z,54.57
2018-03-02T18:25:39.394Z,51.30
2018-03-02T18:28:05.763Z,48.10
2018-03-02T18:30:32.177Z,48.00
2018-03-02T18:32:58.534Z,45.60
2018-03-02T18:35:24.939Z,48.00
2018-03-02T18:37:51.394Z,50.27
2018-03-02T18:40:17.742Z,47.83
2018-03-02T18:42:44.078Z,48.43
2018-03-02T18:45:10.426Z,47.90
2018-03-02T18:47:36.801Z,46.33
2018-03-02T18:50:03.259Z,45.73
2018-03-02T18:52:29.639Z,47.20
2018-03-02T18:54:55.997Z,49.60
2018-03-02T18:57:22.429Z,48.83
2018-03-02T18:59:48.864Z,43.50
2018-03-02T19:02:15.285Z,43.43
2018-03-02T19:04:41.722Z,45.93
2018-03-02T19:07:08.126Z,40.87
2018-03-02T19:09:34.510Z,42.77
2018-03-02T19:12:00.999Z,44.83
2018-03-02T19:14:27.426Z,47.80
2018-03-02T19:16:53.794Z,51.37
2018-03-02T19:19:20.202Z,53.83
2018-03-02T19:21:46.587Z,53.40
2018-03-02T19:24:13.074Z,53.43
2018-03-02T19:26:39.454Z,48.43
2018-03-02T19:29:05.821Z,43.30
2018-03-02T19:31:32.175Z,41.07
2018-03-02T19:33:58.654Z,43.90
2018-03-02T19:36:25.037Z,43.63
2018-03-02T19:38:51.421Z,43.83
2018-03-02T19:41:17.845Z,45.00
2018-03-02T19:43:44.194Z,42.53
2018-03-02T19:46:10.543Z,43.27
2018-03-02T19:48:37.012Z,43.07
2018-03-02T19:51:03.387Z,44.53
2018-03-02T19:53:29.730Z,46.33
2018-03-02T19:55:56.074Z,46.17
2018-03-02T19:58:22.458Z,46.33
2018-03-02T20:00:48.791Z,47.03
2018-03-02T20:03:15.266Z,46.97
2018-03-02T20:05:41.639Z,44.13
2018-03-02T20:08:08.068Z,45.70
2018-03-02T20:10:34.444Z,48.03
2018-03-02T20:13:00.769Z,46.17
2018-03-02T20:15:27.189Z,48.10
2018-03-02T20:17:53.581Z,55.27
2018-03-02T20:20:19.963Z,55.17
2018-03-02T20:22:46.304Z,58.43
2018-03-02T20:25:12.666Z,57.57
2018-03-02T20:27:39.070Z,56.60
2018-03-02T20:30:05.534Z,57.13
2018-03-02T20:32:31.917Z,53.60
2018-03-02T20:34:58.326Z,53.83
2018-03-02T20:37:24.694Z,53.60
2018-03-02T20:39:51.110Z,56.73
2018-03-02T20:42:17.564Z,56.30
2018-03-02T20:44:43.997Z,56.30
2018-03-02T20:47:10.328Z,56.53
2018-03-02T20:49:36.797Z,59.87
2018-03-02T20:52:10.502Z,64.80
2018-03-02T20:54:36.945Z,65.80
2018-03-02T20:57:03.337Z,70.10
2018-03-02T20:59:29.685Z,69.70
2018-03-02T21:01:56.040Z,68.97
2018-03-02T21:04:22.425Z,67.57
2018-03-02T21:06:48.793Z,65.23
2018-03-02T21:09:15.178Z,64.57
2018-03-02T21:11:41.558Z,64.63
2018-03-02T21:14:07.930Z,65.90
2018-03-02T21:16:34.286Z,71.27
2018-03-02T21:19:00.693Z,63.60
2018-03-02T21:21:27.062Z,73.90
2018-03-02T21:23:53.448Z,70.43
2018-03-02T21:26:19.812Z,75.17
2018-03-02T21:28:46.178Z,72.00
2018-03-02T21:31:12.530Z,75.57
2018-03-02T21:33:38.890Z,73.13
2018-03-02T21:36:05.285Z,77.23
2018-03-02T21:38:31.646Z,80.40
2018-03-02T21:40:58.039Z,78.77
2018-03-02T21:43:24.445Z,80.33
2018-03-02T21:45:50.795Z,80.70
2018-03-02T21:48:17.174Z,76.97
2018-03-02T21:50:43.544Z,77.30
2018-03-02T21:53:09.903Z,77.07
2018-03-02T21:55:36.322Z,80.17
2018-03-02T21:58:02.705Z,83.17
2018-03-02T22:00:29.061Z,81.73
2018-03-02T22:02:55.536Z,79.63
2018-03-02T22:05:21.915Z,84.43
2018-03-02T22:07:48.282Z,83.57
2018-03-02T22:10:14.630Z,83.67
2018-03-02T22:12:40.998Z,83.43
2018-03-02T22:15:07.356Z,81.17
2018-03-02T22:17:33.783Z,70.50
2018-03-02T22:20:00.119Z,70.60
2018-03-02T22:22:26.486Z,66.97
2018-03-02T22:24:52.934Z,51.30
2018-03-02T22:27:19.259Z,48.20
2018-03-02T22:29:45.625Z,48.27
2018-03-02T22:32:12.014Z,43.47
2018-03-02T22:34:38.358Z,52.77
2018-03-02T22:37:04.750Z,69.83
2018-03-02T22:39:31.178Z,71.63
2018-03-02T22:41:57.565Z,65.63
2018-03-02T22:44:23.973Z,58.23
2018-03-02T22:46:50.358Z,54.97
2018-03-02T22:49:16.694Z,48.73
2018-03-02T22:51:43.053Z,50.50
2018-03-02T22:54:09.457Z,48.90
2018-03-02T22:56:35.850Z,49.23
2018-03-02T22:59:02.238Z,50.60
2018-03-02T23:01:28.610Z,50.70
2018-03-02T23:03:54.986Z,48.20
2018-03-02T23:06:21.350Z,51.73
2018-03-02T23:08:47.738Z,51.63
2018-03-02T23:11:14.197Z,49.63
2018-03-02T23:13:40.677Z,49.97
2018-03-02T23:16:07.066Z,51.47
2018-03-02T23:18:33.460Z,50.03
2018-03-02T23:20:59.852Z,52.13
2018-03-02T23:23:26.251Z,53.33
2018-03-02T23:25:52.611Z,53.77
2018-03-02T23:28:19.045Z,53.80
2018-03-02T23:30:45.425Z,52.33
2018-03-02T23:33:11.833Z,53.00
2018-03-02T23:35:38.226Z,52.07
2018-03-02T23:38:04.616Z,49.90
2018-03-02T23:40:31.013Z,51.20
2018-03-02T23:42:57.411Z,50.27
2018-03-02T23:45:23.823Z,51.03
2018-03-02T23:47:50.234Z,49.03
2018-03-02T23:50:16.638Z,50.30
2018-03-02T23:52:43.046Z,49.43
2018-03-02T23:55:09.434Z,50.40
2018-03-02T23:57:35.809Z,49.57
